sensor_id;sensor_type;location;lat;lon;timestamp;P1;durP1;ratioP1;P2;durP2;ratioP2
35540;SDS011;21650;48.840;9.162;2022-10-16T00:01:20;3.07;;;1.50;;
35540;SDS011;21650;48.840;9.162;2022-10-16T00:03:47;1.43;;;1.13;;
35540;SDS011;21650;48.840;9.162;2022-10-16T00:06:14;3.27;;;1.53;;
35540;SDS011;21650;48.840;9.162;2022-10-16T00:08:40;2.10;;;1.33;;
35540;SDS011;21650;48.840;9.162;2022-10-16T00:11:13;2.23;;;1.20;;
35540;SDS011;21650;48.840;9.162;2022-10-16T00:13:42;1.47;;;1.27;;
35540;SDS011;21650;48.840;9.162;2022-10-16T00:16:11;4.17;;;1.27;;
35540;SDS011;21650;48.840;9.162;2022-10-16T00:18:38;2.93;;;1.57;;
35540;SDS011;21650;48.840;9.162;2022-10-16T00:21:04;3.10;;;1.30;;
35540;SDS011;21650;48.840;9.162;2022-10-16T00:23:32;7.10;;;1.40;;
35540;SDS011;21650;48.840;9.162;2022-10-16T02:17:12;3.00;;;1.70;;
35540;SDS011;21650;48.840;9.162;2022-10-16T02:19:40;1.77;;;1.40;;
35540;SDS011;21650;48.840;9.162;2022-10-16T02:22:08;4.90;;;1.37;;
35540;SDS011;21650;48.840;9.162;2022-10-16T02:24:45;2.17;;;1.47;;
35540;SDS011;21650;48.840;9.162;2022-10-16T02:27:33;2.60;;;2.07;;
35540;SDS011;21650;48.840;9.162;2022-10-16T02:30:25;4.60;;;1.90;;
35540;SDS011;21650;48.840;9.162;2022-10-16T02:33:00;4.83;;;1.50;;
35540;SDS011;21650;48.840;9.162;2022-10-16T02:35:27;1.57;;;1.20;;
35540;SDS011;21650;48.840;9.162;2022-10-16T02:37:54;4.13;;;1.53;;
35540;SDS011;21650;48.840;9.162;2022-10-16T02:40:22;1.37;;;1.27;;
35540;SDS011;21650;48.840;9.162;2022-10-16T02:42:52;5.33;;;1.60;;
35540;SDS011;21650;48.840;9.162;2022-10-16T02:45:20;2.03;;;1.60;;
35540;SDS011;21650;48.840;9.162;2022-10-16T02:47:46;4.17;;;1.50;;
35540;SDS011;21650;48.840;9.162;2022-10-16T02:50:12;4.67;;;1.60;;
35540;SDS011;21650;48.840;9.162;2022-10-16T02:52:38;3.47;;;1.30;;
35540;SDS011;21650;48.840;9.162;2022-10-16T02:55:04;5.57;;;1.60;;
35540;SDS011;21650;48.840;9.162;2022-10-16T02:57:30;2.50;;;1.37;;
35540;SDS011;21650;48.840;9.162;2022-10-16T02:59:56;4.20;;;1.70;;
35540;SDS011;21650;48.840;9.162;2022-10-16T03:02:22;2.40;;;1.70;;
35540;SDS011;21650;48.840;9.162;2022-10-16T03:04:48;1.63;;;1.30;;
35540;SDS011;21650;48.840;9.162;2022-10-16T03:07:13;2.73;;;1.60;;
35540;SDS011;21650;48.840;9.162;2022-10-16T03:09:39;3.63;;;1.27;;
35540;SDS011;21650;48.840;9.162;2022-10-16T03:12:05;2.63;;;1.63;;
35540;SDS011;21650;48.840;9.162;2022-10-16T03:14:31;2.23;;;1.43;;
35540;SDS011;21650;48.840;9.162;2022-10-16T03:16:57;5.97;;;1.77;;
35540;SDS011;21650;48.840;9.162;2022-10-16T03:19:23;2.83;;;1.53;;
35540;SDS011;21650;48.840;9.162;2022-10-16T03:21:48;6.00;;;3.20;;
35540;SDS011;21650;48.840;9.162;2022-10-16T03:24:14;3.87;;;1.70;;
35540;SDS011;21650;48.840;9.162;2022-10-16T03:26:40;3.47;;;1.53;;
35540;SDS011;21650;48.840;9.162;2022-10-16T03:29:05;3.37;;;1.77;;
35540;SDS011;21650;48.840;9.162;2022-10-16T03:31:31;3.10;;;1.93;;
35540;SDS011;21650;48.840;9.162;2022-10-16T03:33:57;3.20;;;1.60;;
35540;SDS011;21650;48.840;9.162;2022-10-16T03:36:23;4.17;;;1.60;;
35540;SDS011;21650;48.840;9.162;2022-10-16T03:38:48;4.43;;;2.00;;
35540;SDS011;21650;48.840;9.162;2022-10-16T03:41:14;3.37;;;1.63;;
35540;SDS011;21650;48.840;9.162;2022-10-16T03:43:40;3.70;;;1.77;;
35540;SDS011;21650;48.840;9.162;2022-10-16T03:46:05;14.17;;;2.17;;
35540;SDS011;21650;48.840;9.162;2022-10-16T03:48:31;5.57;;;2.20;;
35540;SDS011;21650;48.840;9.162;2022-10-16T03:50:57;11.23;;;2.53;;
35540;SDS011;21650;48.840;9.162;2022-10-16T03:53:23;3.73;;;1.47;;
35540;SDS011;21650;48.840;9.162;2022-10-16T03:55:49;2.53;;;1.63;;
35540;SDS011;21650;48.840;9.162;2022-10-16T03:58:15;5.60;;;1.70;;
35540;SDS011;21650;48.840;9.162;2022-10-16T04:00:41;3.73;;;1.80;;
35540;SDS011;21650;48.840;9.162;2022-10-16T04:03:08;5.50;;;1.50;;
35540;SDS011;21650;48.840;9.162;2022-10-16T04:05:34;1.70;;;1.60;;
35540;SDS011;21650;48.840;9.162;2022-10-16T04:07:59;2.50;;;1.83;;
35540;SDS011;21650;48.840;9.162;2022-10-16T04:10:25;2.90;;;1.50;;
35540;SDS011;21650;48.840;9.162;2022-10-16T04:12:51;2.60;;;2.00;;
35540;SDS011;21650;48.840;9.162;2022-10-16T04:15:17;2.20;;;1.70;;
35540;SDS011;21650;48.840;9.162;2022-10-16T04:17:42;5.57;;;1.70;;
35540;SDS011;21650;48.840;9.162;2022-10-16T04:20:08;2.17;;;1.60;;
35540;SDS011;21650;48.840;9.162;2022-10-16T04:22:34;4.13;;;1.90;;
35540;SDS011;21650;48.840;9.162;2022-10-16T04:24:59;3.90;;;2.40;;
35540;SDS011;21650;48.840;9.162;2022-10-16T04:27:25;7.17;;;2.10;;
35540;SDS011;21650;48.840;9.162;2022-10-16T04:29:50;1.73;;;1.47;;
35540;SDS011;21650;48.840;9.162;2022-10-16T04:32:16;3.13;;;2.00;;
35540;SDS011;21650;48.840;9.162;2022-10-16T04:34:41;4.37;;;1.97;;
35540;SDS011;21650;48.840;9.162;2022-10-16T04:37:07;2.87;;;1.80;;
35540;SDS011;21650;48.840;9.162;2022-10-16T04:39:33;5.30;;;1.93;;
35540;SDS011;21650;48.840;9.162;2022-10-16T04:41:58;2.43;;;1.40;;
35540;SDS011;21650;48.840;9.162;2022-10-16T04:44:24;5.43;;;1.57;;
35540;SDS011;21650;48.840;9.162;2022-10-16T04:46:50;3.10;;;1.70;;
35540;SDS011;21650;48.840;9.162;2022-10-16T04:49:16;3.80;;;1.80;;
35540;SDS011;21650;48.840;9.162;2022-10-16T04:51:41;3.60;;;1.80;;
35540;SDS011;21650;48.840;9.162;2022-10-16T04:54:08;2.83;;;1.70;;
35540;SDS011;21650;48.840;9.162;2022-10-16T04:56:34;2.60;;;1.90;;
35540;SDS011;21650;48.840;9.162;2022-10-16T04:59:05;3.93;;;1.40;;
35540;SDS011;21650;48.840;9.162;2022-10-16T05:01:30;2.67;;;1.93;;
35540;SDS011;21650;48.840;9.162;2022-10-16T05:03:56;2.20;;;1.63;;
35540;SDS011;21650;48.840;9.162;2022-10-16T05:06:21;1.73;;;1.40;;
35540;SDS011;21650;48.840;9.162;2022-10-16T05:08:47;6.03;;;2.10;;
35540;SDS011;21650;48.840;9.162;2022-10-16T05:11:12;2.70;;;1.50;;
35540;SDS011;21650;48.840;9.162;2022-10-16T05:13:38;2.37;;;1.63;;
35540;SDS011;21650;48.840;9.162;2022-10-16T05:16:04;2.70;;;1.53;;
35540;SDS011;21650;48.840;9.162;2022-10-16T05:18:29;5.17;;;2.07;;
35540;SDS011;21650;48.840;9.162;2022-10-16T05:20:55;3.70;;;1.40;;
35540;SDS011;21650;48.840;9.162;2022-10-16T05:23:21;4.33;;;1.60;;
35540;SDS011;21650;48.840;9.162;2022-10-16T05:25:56;2.27;;;1.73;;
35540;SDS011;21650;48.840;9.162;2022-10-16T05:28:23;1.90;;;1.63;;
35540;SDS011;21650;48.840;9.162;2022-10-16T05:30:49;4.50;;;2.20;;
35540;SDS011;21650;48.840;9.162;2022-10-16T05:33:15;3.63;;;1.57;;
35540;SDS011;21650;48.840;9.162;2022-10-16T05:35:41;2.87;;;1.47;;
35540;SDS011;21650;48.840;9.162;2022-10-16T05:38:07;1.60;;;1.50;;
35540;SDS011;21650;48.840;9.162;2022-10-16T05:40:33;3.30;;;1.80;;
35540;SDS011;21650;48.840;9.162;2022-10-16T05:42:58;5.20;;;1.60;;
35540;SDS011;21650;48.840;9.162;2022-10-16T05:45:24;3.00;;;1.70;;
35540;SDS011;21650;48.840;9.162;2022-10-16T05:47:49;6.50;;;1.93;;
35540;SDS011;21650;48.840;9.162;2022-10-16T05:50:16;1.87;;;1.53;;
35540;SDS011;21650;48.840;9.162;2022-10-16T05:52:42;2.67;;;1.67;;
35540;SDS011;21650;48.840;9.162;2022-10-16T05:55:07;2.10;;;1.60;;
35540;SDS011;21650;48.840;9.162;2022-10-16T05:57:33;3.87;;;1.57;;
35540;SDS011;21650;48.840;9.162;2022-10-16T05:59:59;4.07;;;2.33;;
35540;SDS011;21650;48.840;9.162;2022-10-16T06:02:24;1.60;;;1.50;;
35540;SDS011;21650;48.840;9.162;2022-10-16T06:04:51;2.70;;;1.50;;
35540;SDS011;21650;48.840;9.162;2022-10-16T06:07:18;6.40;;;2.10;;
35540;SDS011;21650;48.840;9.162;2022-10-16T06:09:47;2.60;;;1.57;;
35540;SDS011;21650;48.840;9.162;2022-10-16T06:12:14;4.20;;;2.00;;
35540;SDS011;21650;48.840;9.162;2022-10-16T06:14:40;3.50;;;1.80;;
35540;SDS011;21650;48.840;9.162;2022-10-16T06:17:05;2.13;;;1.63;;
35540;SDS011;21650;48.840;9.162;2022-10-16T06:19:31;1.83;;;1.60;;
35540;SDS011;21650;48.840;9.162;2022-10-16T06:21:56;3.07;;;2.00;;
35540;SDS011;21650;48.840;9.162;2022-10-16T06:24:23;6.40;;;2.63;;
35540;SDS011;21650;48.840;9.162;2022-10-16T06:29:25;5.23;;;2.10;;
35540;SDS011;21650;48.840;9.162;2022-10-16T06:31:50;2.80;;;1.90;;
35540;SDS011;21650;48.840;9.162;2022-10-16T06:34:17;2.40;;;1.60;;
35540;SDS011;21650;48.840;9.162;2022-10-16T06:36:43;3.90;;;1.83;;
35540;SDS011;21650;48.840;9.162;2022-10-16T06:39:08;1.93;;;1.73;;
35540;SDS011;21650;48.840;9.162;2022-10-16T06:41:34;5.07;;;1.90;;
35540;SDS011;21650;48.840;9.162;2022-10-16T06:44:00;3.43;;;2.00;;
35540;SDS011;21650;48.840;9.162;2022-10-16T06:46:26;2.40;;;1.60;;
35540;SDS011;21650;48.840;9.162;2022-10-16T06:48:52;2.27;;;1.80;;
35540;SDS011;21650;48.840;9.162;2022-10-16T06:51:19;4.83;;;1.60;;
35540;SDS011;21650;48.840;9.162;2022-10-16T06:53:47;5.73;;;1.80;;
35540;SDS011;21650;48.840;9.162;2022-10-16T06:56:17;2.30;;;1.50;;
35540;SDS011;21650;48.840;9.162;2022-10-16T06:58:51;2.97;;;1.90;;
35540;SDS011;21650;48.840;9.162;2022-10-16T07:01:20;4.57;;;2.07;;
35540;SDS011;21650;48.840;9.162;2022-10-16T07:03:48;2.10;;;1.67;;
35540;SDS011;21650;48.840;9.162;2022-10-16T07:06:14;5.90;;;2.10;;
35540;SDS011;21650;48.840;9.162;2022-10-16T07:08:42;2.07;;;1.87;;
35540;SDS011;21650;48.840;9.162;2022-10-16T07:11:11;4.40;;;2.53;;
35540;SDS011;21650;48.840;9.162;2022-10-16T07:13:39;2.80;;;2.03;;
35540;SDS011;21650;48.840;9.162;2022-10-16T07:16:06;1.77;;;1.67;;
35540;SDS011;21650;48.840;9.162;2022-10-16T07:18:33;3.97;;;2.10;;
35540;SDS011;21650;48.840;9.162;2022-10-16T07:21:03;3.27;;;1.47;;
35540;SDS011;21650;48.840;9.162;2022-10-16T07:23:30;3.27;;;1.77;;
35540;SDS011;21650;48.840;9.162;2022-10-16T07:25:55;4.80;;;1.87;;
35540;SDS011;21650;48.840;9.162;2022-10-16T07:28:21;2.23;;;1.70;;
35540;SDS011;21650;48.840;9.162;2022-10-16T07:30:47;2.43;;;1.63;;
35540;SDS011;21650;48.840;9.162;2022-10-16T07:33:13;1.70;;;1.60;;
35540;SDS011;21650;48.840;9.162;2022-10-16T07:35:46;5.97;;;1.90;;
35540;SDS011;21650;48.840;9.162;2022-10-16T07:38:16;2.77;;;1.80;;
35540;SDS011;21650;48.840;9.162;2022-10-16T07:40:42;3.03;;;1.70;;
35540;SDS011;21650;48.840;9.162;2022-10-16T07:43:07;3.27;;;1.70;;
35540;SDS011;21650;48.840;9.162;2022-10-16T07:45:33;2.13;;;1.60;;
35540;SDS011;21650;48.840;9.162;2022-10-16T07:47:58;6.50;;;2.00;;
35540;SDS011;21650;48.840;9.162;2022-10-16T07:50:24;7.53;;;2.27;;
35540;SDS011;21650;48.840;9.162;2022-10-16T07:52:49;3.73;;;1.87;;
35540;SDS011;21650;48.840;9.162;2022-10-16T07:55:15;4.20;;;2.00;;
35540;SDS011;21650;48.840;9.162;2022-10-16T07:57:40;4.43;;;2.17;;
35540;SDS011;21650;48.840;9.162;2022-10-16T08:00:06;3.53;;;2.10;;
35540;SDS011;21650;48.840;9.162;2022-10-16T08:02:33;3.17;;;1.80;;
35540;SDS011;21650;48.840;9.162;2022-10-16T08:04:58;4.20;;;1.90;;
35540;SDS011;21650;48.840;9.162;2022-10-16T08:07:24;3.07;;;2.23;;
35540;SDS011;21650;48.840;9.162;2022-10-16T08:09:49;10.57;;;2.67;;
35540;SDS011;21650;48.840;9.162;2022-10-16T08:12:16;4.53;;;2.47;;
35540;SDS011;21650;48.840;9.162;2022-10-16T08:14:42;8.93;;;2.20;;
35540;SDS011;21650;48.840;9.162;2022-10-16T08:17:08;2.90;;;1.93;;
35540;SDS011;21650;48.840;9.162;2022-10-16T08:19:33;3.83;;;1.73;;
35540;SDS011;21650;48.840;9.162;2022-10-16T08:21:59;2.93;;;1.97;;
35540;SDS011;21650;48.840;9.162;2022-10-16T08:24:26;5.43;;;1.83;;
35540;SDS011;21650;48.840;9.162;2022-10-16T08:26:53;2.70;;;1.87;;
35540;SDS011;21650;48.840;9.162;2022-10-16T08:29:19;3.10;;;1.97;;
35540;SDS011;21650;48.840;9.162;2022-10-16T08:31:44;2.63;;;1.90;;
35540;SDS011;21650;48.840;9.162;2022-10-16T08:34:10;3.17;;;2.27;;
35540;SDS011;21650;48.840;9.162;2022-10-16T08:36:35;2.30;;;2.10;;
35540;SDS011;21650;48.840;9.162;2022-10-16T08:39:01;3.50;;;1.87;;
35540;SDS011;21650;48.840;9.162;2022-10-16T08:44:41;4.53;;;1.83;;
35540;SDS011;21650;48.840;9.162;2022-10-16T08:47:35;4.23;;;2.30;;
35540;SDS011;21650;48.840;9.162;2022-10-16T08:50:24;6.10;;;2.60;;
35540;SDS011;21650;48.840;9.162;2022-10-16T08:52:52;4.97;;;2.87;;
35540;SDS011;21650;48.840;9.162;2022-10-16T08:55:37;3.93;;;2.30;;
35540;SDS011;21650;48.840;9.162;2022-10-16T08:58:10;5.17;;;3.07;;
35540;SDS011;21650;48.840;9.162;2022-10-16T09:00:39;4.23;;;3.10;;
35540;SDS011;21650;48.840;9.162;2022-10-16T09:14:58;3.27;;;2.33;;
35540;SDS011;21650;48.840;9.162;2022-10-16T09:20:16;2.63;;;1.87;;
35540;SDS011;21650;48.840;9.162;2022-10-16T09:23:17;5.17;;;1.67;;
35540;SDS011;21650;48.840;9.162;2022-10-16T09:25:48;5.30;;;2.00;;
35540;SDS011;21650;48.840;9.162;2022-10-16T09:28:15;4.27;;;1.90;;
35540;SDS011;21650;48.840;9.162;2022-10-16T09:30:43;2.50;;;1.60;;
35540;SDS011;21650;48.840;9.162;2022-10-16T09:33:10;3.27;;;1.43;;
35540;SDS011;21650;48.840;9.162;2022-10-16T09:35:44;3.77;;;1.57;;
35540;SDS011;21650;48.840;9.162;2022-10-16T09:38:25;6.83;;;1.80;;
35540;SDS011;21650;48.840;9.162;2022-10-16T09:40:56;11.20;;;1.73;;
35540;SDS011;21650;48.840;9.162;2022-10-16T09:43:28;2.67;;;1.53;;
35540;SDS011;21650;48.840;9.162;2022-10-16T09:46:03;2.47;;;1.67;;
35540;SDS011;21650;48.840;9.162;2022-10-16T09:48:43;3.07;;;1.27;;
35540;SDS011;21650;48.840;9.162;2022-10-16T09:51:17;4.83;;;1.50;;
35540;SDS011;21650;48.840;9.162;2022-10-16T09:53:53;3.37;;;1.80;;
35540;SDS011;21650;48.840;9.162;2022-10-16T09:56:22;1.83;;;1.63;;
35540;SDS011;21650;48.840;9.162;2022-10-16T09:58:53;4.37;;;1.60;;
35540;SDS011;21650;48.840;9.162;2022-10-16T10:01:27;4.30;;;1.87;;
35540;SDS011;21650;48.840;9.162;2022-10-16T10:03:56;2.63;;;1.50;;
35540;SDS011;21650;48.840;9.162;2022-10-16T10:06:28;3.50;;;1.70;;
35540;SDS011;21650;48.840;9.162;2022-10-16T10:08:55;1.67;;;1.40;;
35540;SDS011;21650;48.840;9.162;2022-10-16T10:14:22;4.43;;;1.40;;
35540;SDS011;21650;48.840;9.162;2022-10-16T10:24:57;3.13;;;1.60;;
35540;SDS011;21650;48.840;9.162;2022-10-16T10:27:35;4.70;;;1.63;;
35540;SDS011;21650;48.840;9.162;2022-10-16T10:30:23;2.63;;;1.60;;
35540;SDS011;21650;48.840;9.162;2022-10-16T10:35:56;2.47;;;1.63;;
35540;SDS011;21650;48.840;9.162;2022-10-16T10:38:39;1.93;;;1.40;;
35540;SDS011;21650;48.840;9.162;2022-10-16T10:41:16;4.43;;;1.53;;
35540;SDS011;21650;48.840;9.162;2022-10-16T10:46:24;3.60;;;1.20;;
35540;SDS011;21650;48.840;9.162;2022-10-16T10:49:09;1.73;;;1.20;;
35540;SDS011;21650;48.840;9.162;2022-10-16T10:59:39;8.77;;;1.90;;
35540;SDS011;21650;48.840;9.162;2022-10-16T11:02:19;2.43;;;1.60;;
35540;SDS011;21650;48.840;9.162;2022-10-16T11:07:39;7.93;;;1.40;;
35540;SDS011;21650;48.840;9.162;2022-10-16T11:10:16;2.87;;;1.33;;
35540;SDS011;21650;48.840;9.162;2022-10-16T11:12:47;2.77;;;1.50;;
35540;SDS011;21650;48.840;9.162;2022-10-16T11:15:28;7.43;;;2.07;;
35540;SDS011;21650;48.840;9.162;2022-10-16T11:17:59;2.07;;;1.50;;
35540;SDS011;21650;48.840;9.162;2022-10-16T11:20:34;3.93;;;1.70;;
35540;SDS011;21650;48.840;9.162;2022-10-16T11:23:18;1.80;;;1.10;;
35540;SDS011;21650;48.840;9.162;2022-10-16T11:25:50;3.37;;;1.57;;
35540;SDS011;21650;48.840;9.162;2022-10-16T11:28:20;1.47;;;1.00;;
35540;SDS011;21650;48.840;9.162;2022-10-16T11:31:00;4.87;;;1.50;;
35540;SDS011;21650;48.840;9.162;2022-10-16T11:33:41;2.70;;;1.10;;
35540;SDS011;21650;48.840;9.162;2022-10-16T11:39:07;3.13;;;1.13;;
35540;SDS011;21650;48.840;9.162;2022-10-16T11:41:45;1.37;;;1.27;;
35540;SDS011;21650;48.840;9.162;2022-10-16T11:44:20;2.33;;;1.30;;
35540;SDS011;21650;48.840;9.162;2022-10-16T11:46:58;2.37;;;1.00;;
35540;SDS011;21650;48.840;9.162;2022-10-16T11:49:30;3.87;;;1.40;;
35540;SDS011;21650;48.840;9.162;2022-10-16T11:54:42;9.93;;;2.47;;
35540;SDS011;21650;48.840;9.162;2022-10-16T11:57:13;2.50;;;1.20;;
35540;SDS011;21650;48.840;9.162;2022-10-16T11:59:58;1.90;;;1.30;;
35540;SDS011;21650;48.840;9.162;2022-10-16T12:07:43;1.67;;;1.30;;
35540;SDS011;21650;48.840;9.162;2022-10-16T12:10:32;1.73;;;1.30;;
35540;SDS011;21650;48.840;9.162;2022-10-16T12:13:02;2.17;;;0.93;;
35540;SDS011;21650;48.840;9.162;2022-10-16T12:15:50;5.53;;;1.20;;
35540;SDS011;21650;48.840;9.162;2022-10-16T12:18:22;2.87;;;1.10;;
35540;SDS011;21650;48.840;9.162;2022-10-16T12:20:55;2.67;;;1.10;;
35540;SDS011;21650;48.840;9.162;2022-10-16T12:23:30;1.40;;;1.00;;
35540;SDS011;21650;48.840;9.162;2022-10-16T12:25:57;1.50;;;1.27;;
35540;SDS011;21650;48.840;9.162;2022-10-16T12:28:42;1.50;;;1.20;;
35540;SDS011;21650;48.840;9.162;2022-10-16T12:31:11;4.03;;;1.10;;
35540;SDS011;21650;48.840;9.162;2022-10-16T12:33:37;2.10;;;1.37;;
35540;SDS011;21650;48.840;9.162;2022-10-16T12:36:09;2.00;;;1.20;;
35540;SDS011;21650;48.840;9.162;2022-10-16T12:38:38;1.47;;;1.10;;
35540;SDS011;21650;48.840;9.162;2022-10-16T12:41:24;2.37;;;1.27;;
35540;SDS011;21650;48.840;9.162;2022-10-16T12:43:57;1.87;;;0.97;;
35540;SDS011;21650;48.840;9.162;2022-10-16T12:49:56;2.37;;;0.80;;
35540;SDS011;21650;48.840;9.162;2022-10-16T12:51:53;1.47;;;1.17;;
35540;SDS011;21650;48.840;9.162;2022-10-16T12:54:24;1.67;;;1.10;;
35540;SDS011;21650;48.840;9.162;2022-10-16T12:59:46;3.50;;;1.17;;
35540;SDS011;21650;48.840;9.162;2022-10-16T13:16:55;1.87;;;1.00;;
35540;SDS011;21650;48.840;9.162;2022-10-16T13:19:39;2.83;;;1.30;;
35540;SDS011;21650;48.840;9.162;2022-10-16T13:22:38;3.47;;;1.40;;
35540;SDS011;21650;48.840;9.162;2022-10-16T13:25:18;2.20;;;1.40;;
35540;SDS011;21650;48.840;9.162;2022-10-16T13:27:54;1.67;;;1.23;;
35540;SDS011;21650;48.840;9.162;2022-10-16T13:30:23;4.93;;;1.60;;
35540;SDS011;21650;48.840;9.162;2022-10-16T13:33:00;2.70;;;1.33;;
35540;SDS011;21650;48.840;9.162;2022-10-16T13:35:33;2.47;;;1.13;;
35540;SDS011;21650;48.840;9.162;2022-10-16T13:38:14;2.17;;;1.20;;
35540;SDS011;21650;48.840;9.162;2022-10-16T13:41:15;1.53;;;1.07;;
35540;SDS011;21650;48.840;9.162;2022-10-16T13:43:43;2.10;;;1.10;;
35540;SDS011;21650;48.840;9.162;2022-10-16T13:46:18;4.63;;;1.30;;
35540;SDS011;21650;48.840;9.162;2022-10-16T13:51:24;2.37;;;1.30;;
35540;SDS011;21650;48.840;9.162;2022-10-16T13:53:51;3.37;;;1.20;;
35540;SDS011;21650;48.840;9.162;2022-10-16T13:56:18;1.67;;;1.30;;
35540;SDS011;21650;48.840;9.162;2022-10-16T13:58:46;2.90;;;1.17;;
35540;SDS011;21650;48.840;9.162;2022-10-16T14:01:25;2.33;;;0.80;;
35540;SDS011;21650;48.840;9.162;2022-10-16T14:04:04;1.87;;;1.30;;
35540;SDS011;21650;48.840;9.162;2022-10-16T14:06:32;7.20;;;1.70;;
35540;SDS011;21650;48.840;9.162;2022-10-16T14:09:04;0.93;;;0.83;;
35540;SDS011;21650;48.840;9.162;2022-10-16T14:11:31;3.67;;;1.33;;
35540;SDS011;21650;48.840;9.162;2022-10-16T14:13:58;2.40;;;1.70;;
35540;SDS011;21650;48.840;9.162;2022-10-16T14:16:25;4.53;;;1.53;;
35540;SDS011;21650;48.840;9.162;2022-10-16T14:19:00;3.50;;;1.33;;
35540;SDS011;21650;48.840;9.162;2022-10-16T14:21:29;1.87;;;1.43;;
35540;SDS011;21650;48.840;9.162;2022-10-16T14:23:55;2.27;;;1.77;;
35540;SDS011;21650;48.840;9.162;2022-10-16T14:26:25;3.77;;;1.57;;
35540;SDS011;21650;48.840;9.162;2022-10-16T14:31:55;2.60;;;1.23;;
35540;SDS011;21650;48.840;9.162;2022-10-16T14:34:31;5.40;;;1.30;;
35540;SDS011;21650;48.840;9.162;2022-10-16T14:37:02;2.77;;;1.40;;
35540;SDS011;21650;48.840;9.162;2022-10-16T14:39:50;2.13;;;1.43;;
35540;SDS011;21650;48.840;9.162;2022-10-16T14:42:17;2.17;;;1.53;;
35540;SDS011;21650;48.840;9.162;2022-10-16T14:44:44;3.83;;;1.40;;
35540;SDS011;21650;48.840;9.162;2022-10-16T14:47:15;1.47;;;1.37;;
35540;SDS011;21650;48.840;9.162;2022-10-16T14:49:47;1.70;;;1.60;;
35540;SDS011;21650;48.840;9.162;2022-10-16T14:52:12;4.40;;;1.33;;
35540;SDS011;21650;48.840;9.162;2022-10-16T14:54:39;2.80;;;1.50;;
35540;SDS011;21650;48.840;9.162;2022-10-16T14:57:05;2.30;;;1.63;;
35540;SDS011;21650;48.840;9.162;2022-10-16T14:59:39;6.63;;;2.53;;
35540;SDS011;21650;48.840;9.162;2022-10-16T15:02:17;3.13;;;2.30;;
35540;SDS011;21650;48.840;9.162;2022-10-16T15:04:57;3.17;;;1.97;;
35540;SDS011;21650;48.840;9.162;2022-10-16T15:07:26;4.33;;;1.70;;
35540;SDS011;21650;48.840;9.162;2022-10-16T15:09:52;1.73;;;1.50;;
35540;SDS011;21650;48.840;9.162;2022-10-16T15:12:18;2.07;;;1.60;;
35540;SDS011;21650;48.840;9.162;2022-10-16T15:14:44;4.87;;;1.87;;
35540;SDS011;21650;48.840;9.162;2022-10-16T15:17:10;2.93;;;1.40;;
35540;SDS011;21650;48.840;9.162;2022-10-16T15:19:36;4.90;;;2.00;;
35540;SDS011;21650;48.840;9.162;2022-10-16T15:22:02;4.77;;;1.77;;
35540;SDS011;21650;48.840;9.162;2022-10-16T15:24:27;6.50;;;1.77;;
35540;SDS011;21650;48.840;9.162;2022-10-16T15:26:53;2.67;;;2.00;;
35540;SDS011;21650;48.840;9.162;2022-10-16T15:29:18;3.73;;;2.17;;
35540;SDS011;21650;48.840;9.162;2022-10-16T15:31:44;4.13;;;2.00;;
35540;SDS011;21650;48.840;9.162;2022-10-16T15:34:12;5.33;;;2.50;;
35540;SDS011;21650;48.840;9.162;2022-10-16T15:36:38;3.37;;;2.10;;
35540;SDS011;21650;48.840;9.162;2022-10-16T15:39:05;3.60;;;2.07;;
35540;SDS011;21650;48.840;9.162;2022-10-16T15:41:37;2.27;;;1.83;;
35540;SDS011;21650;48.840;9.162;2022-10-16T15:44:02;2.00;;;1.73;;
35540;SDS011;21650;48.840;9.162;2022-10-16T15:46:28;3.87;;;1.97;;
35540;SDS011;21650;48.840;9.162;2022-10-16T15:48:56;2.73;;;1.77;;
35540;SDS011;21650;48.840;9.162;2022-10-16T15:51:22;3.67;;;1.80;;
35540;SDS011;21650;48.840;9.162;2022-10-16T15:53:48;3.17;;;2.03;;
35540;SDS011;21650;48.840;9.162;2022-10-16T15:56:15;3.30;;;2.00;;
35540;SDS011;21650;48.840;9.162;2022-10-16T15:58:42;4.37;;;2.10;;
35540;SDS011;21650;48.840;9.162;2022-10-16T16:01:08;3.53;;;1.93;;
35540;SDS011;21650;48.840;9.162;2022-10-16T16:03:36;1.90;;;1.80;;
35540;SDS011;21650;48.840;9.162;2022-10-16T16:06:06;3.60;;;1.97;;
35540;SDS011;21650;48.840;9.162;2022-10-16T16:08:33;1.90;;;1.70;;
35540;SDS011;21650;48.840;9.162;2022-10-16T16:11:00;5.13;;;2.33;;
35540;SDS011;21650;48.840;9.162;2022-10-16T16:13:33;2.27;;;1.90;;
35540;SDS011;21650;48.840;9.162;2022-10-16T16:15:59;4.43;;;2.40;;
35540;SDS011;21650;48.840;9.162;2022-10-16T16:18:24;4.63;;;2.20;;
35540;SDS011;21650;48.840;9.162;2022-10-16T16:20:51;4.37;;;2.07;;
35540;SDS011;21650;48.840;9.162;2022-10-16T16:23:17;4.67;;;2.17;;
35540;SDS011;21650;48.840;9.162;2022-10-16T16:25:44;3.67;;;2.10;;
35540;SDS011;21650;48.840;9.162;2022-10-16T16:28:09;2.30;;;2.07;;
35540;SDS011;21650;48.840;9.162;2022-10-16T16:30:39;3.40;;;1.90;;
35540;SDS011;21650;48.840;9.162;2022-10-16T16:33:04;6.10;;;2.23;;
35540;SDS011;21650;48.840;9.162;2022-10-16T16:35:30;2.63;;;2.20;;
35540;SDS011;21650;48.840;9.162;2022-10-16T16:37:55;5.20;;;2.60;;
35540;SDS011;21650;48.840;9.162;2022-10-16T16:40:21;2.83;;;2.47;;
35540;SDS011;21650;48.840;9.162;2022-10-16T16:42:47;2.30;;;2.10;;
35540;SDS011;21650;48.840;9.162;2022-10-16T16:45:14;3.03;;;2.10;;
35540;SDS011;21650;48.840;9.162;2022-10-16T16:47:39;3.13;;;2.40;;
35540;SDS011;21650;48.840;9.162;2022-10-16T16:50:05;8.30;;;2.67;;
35540;SDS011;21650;48.840;9.162;2022-10-16T16:52:31;2.30;;;2.10;;
35540;SDS011;21650;48.840;9.162;2022-10-16T16:54:57;3.83;;;2.40;;
35540;SDS011;21650;48.840;9.162;2022-10-16T16:57:23;3.33;;;2.17;;
35540;SDS011;21650;48.840;9.162;2022-10-16T16:59:49;4.80;;;2.20;;
35540;SDS011;21650;48.840;9.162;2022-10-16T17:02:16;3.33;;;2.33;;
35540;SDS011;21650;48.840;9.162;2022-10-16T17:04:42;4.33;;;2.43;;
35540;SDS011;21650;48.840;9.162;2022-10-16T17:07:07;3.77;;;2.33;;
35540;SDS011;21650;48.840;9.162;2022-10-16T17:09:33;7.80;;;2.63;;
35540;SDS011;21650;48.840;9.162;2022-10-16T17:11:58;8.90;;;2.87;;
35540;SDS011;21650;48.840;9.162;2022-10-16T17:14:24;4.00;;;2.23;;
35540;SDS011;21650;48.840;9.162;2022-10-16T17:16:49;2.73;;;2.27;;
35540;SDS011;21650;48.840;9.162;2022-10-16T17:19:17;4.60;;;2.87;;
35540;SDS011;21650;48.840;9.162;2022-10-16T17:21:44;6.93;;;2.40;;
35540;SDS011;21650;48.840;9.162;2022-10-16T17:24:12;3.47;;;2.23;;
35540;SDS011;21650;48.840;9.162;2022-10-16T17:26:38;4.67;;;2.67;;
35540;SDS011;21650;48.840;9.162;2022-10-16T17:29:05;4.73;;;2.30;;
35540;SDS011;21650;48.840;9.162;2022-10-16T17:31:32;8.63;;;2.60;;
35540;SDS011;21650;48.840;9.162;2022-10-16T17:33:59;9.50;;;2.77;;
35540;SDS011;21650;48.840;9.162;2022-10-16T17:36:26;6.90;;;3.03;;
35540;SDS011;21650;48.840;9.162;2022-10-16T17:38:57;3.60;;;2.60;;
35540;SDS011;21650;48.840;9.162;2022-10-16T17:41:25;2.67;;;2.20;;
35540;SDS011;21650;48.840;9.162;2022-10-16T17:43:51;7.93;;;2.33;;
35540;SDS011;21650;48.840;9.162;2022-10-16T17:46:18;4.20;;;2.40;;
35540;SDS011;21650;48.840;9.162;2022-10-16T17:48:46;4.77;;;3.07;;
35540;SDS011;21650;48.840;9.162;2022-10-16T17:51:16;5.47;;;3.37;;
35540;SDS011;21650;48.840;9.162;2022-10-16T17:53:46;4.33;;;2.70;;
35540;SDS011;21650;48.840;9.162;2022-10-16T17:56:17;4.83;;;3.20;;
35540;SDS011;21650;48.840;9.162;2022-10-16T17:58:43;6.20;;;2.93;;
35540;SDS011;21650;48.840;9.162;2022-10-16T18:01:12;4.97;;;3.77;;
35540;SDS011;21650;48.840;9.162;2022-10-16T18:03:39;5.97;;;3.90;;
35540;SDS011;21650;48.840;9.162;2022-10-16T18:06:05;5.63;;;3.50;;
35540;SDS011;21650;48.840;9.162;2022-10-16T18:08:31;12.10;;;4.70;;
35540;SDS011;21650;48.840;9.162;2022-10-16T18:10:56;6.13;;;3.40;;
35540;SDS011;21650;48.840;9.162;2022-10-16T18:13:22;9.47;;;3.33;;
35540;SDS011;21650;48.840;9.162;2022-10-16T18:15:57;9.23;;;3.83;;